Time;durP1;ratioP1;P1;durP2;ratioP2;P2;SDS_P1;SDS_P2;PMS_P1;PMS_P2;Temp;Humidity;BMP_temperature;BMP_pressure;BME280_temperature;BME280_humidity;BME280_pressure;Samples;Min_cycle;Max_cycle;Signal;HPM_P1;HPM_P2
2023/06/18 00:00:56;;;;;;;4.30;3.53;;;19.20;99.90;;;;;;5097136;28;20572;-41
2023/06/18 00:03:22;;;;;;;5.80;3.33;;;19.10;99.90;;;;;;5096759;28;20178;-40
2023/06/18 00:05:47;;;;;;;7.73;3.93;;;19.10;99.90;;;;;;5096495;28;20175;-40
2023/06/18 00:08:13;;;;;;;5.37;3.57;;;19.10;99.90;;;;;;5096796;28;20250;-42
2023/06/18 00:10:39;;;;;;;3.83;3.50;;;19.00;99.90;;;;;;5096329;28;20281;-40
2023/06/18 00:13:05;;;;;;;5.10;3.73;;;19.00;99.90;;;;;;5096582;28;20720;-40
2023/06/18 00:15:32;;;;;;;6.73;3.53;;;18.90;99.90;;;;;;5096487;28;20198;-41
2023/06/18 00:17:57;;;;;;;5.07;3.33;;;18.90;99.90;;;;;;5096581;28;20258;-40
2023/06/18 00:20:23;;;;;;;6.63;3.70;;;18.90;99.90;;;;;;5096473;28;20209;-42
2023/06/18 00:22:52;;;;;;;4.37;2.97;;;18.80;99.90;;;;;;5096196;28;20175;-41
2023/06/18 00:25:19;;;;;;;4.37;3.50;;;18.80;99.90;;;;;;5096555;28;20710;-48
2023/06/18 00:27:45;;;;;;;5.77;3.57;;;18.80;99.90;;;;;;5096025;28;20281;-47
2023/06/18 00:30:11;;;;;;;3.57;3.27;;;18.70;99.90;;;;;;5095979;28;20198;-48
2023/06/18 00:32:44;;;;;;;5.53;3.60;;;18.70;99.90;;;;;;5095922;28;20178;-48
2023/06/18 00:35:17;;;;;;;9.73;3.60;;;18.70;99.90;;;;;;5096105;28;20203;-48
2023/06/18 00:37:43;;;;;;;3.77;3.40;;;18.60;99.90;;;;;;5095784;28;20194;-48
2023/06/18 00:40:10;;;;;;;5.40;3.60;;;18.50;99.90;;;;;;5095830;28;20186;-47
2023/06/18 00:42:36;;;;;;;9.00;3.80;;;18.50;99.90;;;;;;5096089;28;20658;-46
2023/06/18 00:45:03;;;;;;;4.67;3.80;;;18.40;99.90;;;;;;5096199;28;20195;-48
2023/06/18 00:47:29;;;;;;;4.00;3.60;;;18.40;99.90;;;;;;5095913;28;20262;-47
2023/06/18 00:49:55;;;;;;;3.93;3.53;;;18.40;99.90;;;;;;5095951;28;20266;-48
2023/06/18 00:52:23;;;;;;;6.00;3.70;;;18.30;99.90;;;;;;5095799;28;20167;-47
2023/06/18 00:54:50;;;;;;;5.63;3.67;;;18.20;99.90;;;;;;5096449;28;20203;-44
2023/06/18 00:57:20;;;;;;;9.87;4.20;;;18.10;99.90;;;;;;5095668;28;20258;-48
2023/06/18 00:59:50;;;;;;;5.60;3.37;;;18.20;99.90;;;;;;5095696;28;20163;-47
2023/06/18 01:02:23;;;;;;;6.33;4.00;;;18.10;99.90;;;;;;5095464;28;20266;-48
2023/06/18 01:04:53;;;;;;;6.60;3.63;;;18.00;99.90;;;;;;5095578;28;20203;-47
2023/06/18 01:07:20;;;;;;;4.37;3.47;;;18.00;99.90;;;;;;5094708;28;20179;-47
2023/06/18 01:09:52;;;;;;;3.90;3.43;;;18.00;99.90;;;;;;5095399;28;20211;-49
2023/06/18 01:12:19;;;;;;;7.27;3.80;;;17.90;99.90;;;;;;5095120;28;20191;-47
2023/06/18 01:14:50;;;;;;;4.77;3.37;;;17.90;99.90;;;;;;5095335;28;20186;-45
2023/06/18 01:17:19;;;;;;;8.63;4.07;;;17.90;99.90;;;;;;5095380;28;20163;-47
2023/06/18 01:20:07;;;;;;;6.67;3.47;;;17.90;99.90;;;;;;5095065;28;20179;-47
2023/06/18 01:22:45;;;;;;;6.47;4.40;;;18.00;99.90;;;;;;5094991;28;20191;-48
2023/06/18 01:25:11;;;;;;;4.93;3.30;;;17.90;99.90;;;;;;5095252;28;20195;-49
2023/06/18 01:27:41;;;;;;;8.27;4.10;;;17.90;99.90;;;;;;5095133;28;20178;-47
2023/06/18 01:30:11;;;;;;;6.27;4.00;;;17.90;99.90;;;;;;5095026;28;20260;-49
2023/06/18 01:32:38;;;;;;;6.73;4.20;;;17.90;99.90;;;;;;5094779;28;20177;-48
2023/06/18 01:35:05;;;;;;;4.80;4.00;;;17.80;99.90;;;;;;5094935;28;20583;-48
2023/06/18 01:38:08;;;;;;;9.30;4.10;;;17.80;99.90;;;;;;5095109;28;20191;-47
2023/06/18 01:40:39;;;;;;;4.83;3.77;;;17.80;99.90;;;;;;5093407;28;20183;-48
2023/06/18 01:43:12;;;;;;;6.53;4.13;;;17.70;99.90;;;;;;5094619;28;20250;-47
2023/06/18 01:45:46;;;;;;;9.20;4.30;;;17.70;99.90;;;;;;5094858;28;20833;-48
2023/06/18 01:48:13;;;;;;;6.27;4.57;;;17.70;99.90;;;;;;5094791;28;20171;-48
2023/06/18 01:50:43;;;;;;;9.17;4.53;;;17.60;99.90;;;;;;5094524;28;20195;-48
2023/06/18 01:53:13;;;;;;;12.30;4.73;;;17.50;99.90;;;;;;5093131;28;20164;-48
2023/06/18 01:55:41;;;;;;;5.87;4.50;;;17.50;99.90;;;;;;5094267;28;20233;-49
2023/06/18 01:58:07;;;;;;;8.93;4.33;;;17.50;99.90;;;;;;5094296;28;20596;-49
2023/06/18 02:00:33;;;;;;;7.90;4.70;;;17.50;99.90;;;;;;5094662;28;20209;-47
2023/06/18 02:02:59;;;;;;;6.67;4.70;;;17.40;99.90;;;;;;5094345;28;20542;-42
2023/06/18 02:05:24;;;;;;;7.20;4.70;;;17.40;99.90;;;;;;5094109;28;20191;-41
2023/06/18 02:07:50;;;;;;;7.60;4.50;;;17.30;99.90;;;;;;5094172;28;20171;-43
2023/06/18 02:10:16;;;;;;;7.53;4.73;;;17.30;99.90;;;;;;5094265;28;20206;-43
2023/06/18 02:12:41;;;;;;;7.03;4.33;;;17.20;99.90;;;;;;5094047;28;20198;-43
2023/06/18 02:15:08;;;;;;;9.63;4.37;;;17.20;99.90;;;;;;5093915;28;20199;-44
2023/06/18 02:17:33;;;;;;;6.90;4.57;;;17.10;99.90;;;;;;5093969;28;20175;-44
2023/06/18 02:19:59;;;;;;;8.27;4.23;;;17.10;99.90;;;;;;5093038;28;20179;-40
2023/06/18 02:22:25;;;;;;;8.73;4.67;;;17.00;99.90;;;;;;5093817;28;20549;-41
2023/06/18 02:24:51;;;;;;;5.77;4.17;;;17.10;99.90;;;;;;5094062;28;20199;-43
2023/06/18 02:27:17;;;;;;;10.63;4.87;;;17.00;99.90;;;;;;5094018;28;20179;-42
2023/06/18 02:29:42;;;;;;;7.17;4.67;;;17.00;99.90;;;;;;5093650;28;20604;-42
2023/06/18 02:32:08;;;;;;;8.27;4.87;;;16.90;99.90;;;;;;5092477;28;20174;-42
2023/06/18 02:34:34;;;;;;;9.63;4.57;;;16.80;99.90;;;;;;5093607;28;20222;-43
2023/06/18 02:37:00;;;;;;;7.60;4.13;;;16.70;99.90;;;;;;5093794;28;20191;-42
2023/06/18 02:39:25;;;;;;;10.07;4.30;;;16.70;99.90;;;;;;5093658;28;20270;-43
2023/06/18 02:41:51;;;;;;;10.33;5.00;;;16.60;99.90;;;;;;5093986;28;20214;-43
2023/06/18 02:44:17;;;;;;;7.63;4.23;;;16.60;99.90;;;;;;5093546;28;20202;-43
2023/06/18 02:46:42;;;;;;;7.27;4.17;;;16.50;99.90;;;;;;5094085;28;20570;-43
2023/06/18 02:49:08;;;;;;;10.23;4.70;;;16.40;99.90;;;;;;5093484;28;20545;-42
2023/06/18 02:51:34;;;;;;;11.90;5.17;;;16.40;99.90;;;;;;5093759;28;20196;-42
2023/06/18 02:54:00;;;;;;;7.20;3.97;;;16.40;99.90;;;;;;5093396;28;20198;-43
2023/06/18 02:56:29;;;;;;;9.03;4.40;;;16.30;99.90;;;;;;5093761;28;20183;-45
2023/06/18 02:58:58;;;;;;;5.57;4.37;;;16.30;99.90;;;;;;5093707;28;20171;-43
2023/06/18 03:01:24;;;;;;;11.07;5.07;;;16.20;99.90;;;;;;5093760;28;20186;-42
2023/06/18 03:03:50;;;;;;;5.30;4.40;;;16.20;99.90;;;;;;5093688;28;20694;-42
2023/06/18 03:06:16;;;;;;;8.13;4.50;;;16.10;99.90;;;;;;5093624;28;20179;-41
2023/06/18 03:08:42;;;;;;;8.23;4.10;;;16.10;99.90;;;;;;5092082;28;20632;-42
2023/06/18 03:11:07;;;;;;;11.40;4.43;;;16.00;99.90;;;;;;5093281;28;20206;-43
2023/06/18 03:13:33;;;;;;;10.30;4.40;;;16.00;99.90;;;;;;5093567;28;20542;-43
2023/06/18 03:15:59;;;;;;;6.23;3.77;;;16.00;99.90;;;;;;5093295;28;20518;-42
2023/06/18 03:18:25;;;;;;;8.73;4.60;;;15.90;99.90;;;;;;5093364;28;20186;-41
2023/06/18 03:20:55;;;;;;;7.03;4.53;;;15.90;99.90;;;;;;5093521;28;20183;-40
2023/06/18 03:23:21;;;;;;;12.77;4.73;;;15.90;99.90;;;;;;5093599;28;20189;-44
2023/06/18 03:25:46;;;;;;;9.03;4.80;;;15.80;99.90;;;;;;5093207;28;20269;-41
2023/06/18 03:28:12;;;;;;;6.90;4.53;;;15.80;99.90;;;;;;5093415;28;20183;-41
2023/06/18 03:30:38;;;;;;;6.37;4.40;;;15.70;99.90;;;;;;5094028;28;20198;-43
2023/06/18 03:33:04;;;;;;;8.50;5.00;;;15.70;99.90;;;;;;5097459;28;20175;-41
2023/06/18 03:35:32;;;;;;;8.83;5.50;;;15.80;99.90;;;;;;5097353;28;20247;-43
2023/06/18 03:37:58;;;;;;;11.33;5.20;;;15.70;99.90;;;;;;5096925;28;20206;-39
2023/06/18 03:40:23;;;;;;;10.43;5.20;;;15.70;99.90;;;;;;5097321;28;20194;-43
2023/06/18 03:42:49;;;;;;;6.90;4.67;;;15.70;99.90;;;;;;5097378;28;20187;-43
2023/06/18 03:45:14;;;;;;;7.63;4.90;;;15.70;99.90;;;;;;5097731;28;20206;-41
2023/06/18 03:47:40;;;;;;;9.43;5.40;;;15.70;99.90;;;;;;5096984;28;20183;-42
2023/06/18 03:50:06;;;;;;;7.00;5.23;;;15.70;99.90;;;;;;5097544;28;20209;-41
2023/06/18 03:52:32;;;;;;;9.80;5.10;;;15.70;99.90;;;;;;5097049;28;20167;-41
2023/06/18 03:54:57;;;;;;;9.10;5.30;;;15.70;99.90;;;;;;5096780;28;20201;-42
2023/06/18 03:57:23;;;;;;;11.03;5.60;;;15.70;99.90;;;;;;5096742;28;20175;-40
2023/06/18 03:59:51;;;;;;;10.47;5.07;;;15.70;99.90;;;;;;5097141;28;20175;-43
2023/06/18 04:02:17;;;;;;;7.20;5.17;;;15.70;99.90;;;;;;5096571;28;20178;-41
2023/06/18 04:04:44;;;;;;;10.67;5.20;;;15.70;99.90;;;;;;5096672;28;20224;-43
2023/06/18 04:07:10;;;;;;;10.93;5.40;;;15.80;99.90;;;;;;5097110;28;20167;-43
2023/06/18 04:09:35;;;;;;;12.00;5.77;;;15.70;99.90;;;;;;5096664;28;20690;-43
2023/06/18 04:12:01;;;;;;;9.90;5.33;;;15.80;99.90;;;;;;5096439;28;20760;-42
2023/06/18 04:14:27;;;;;;;8.13;5.07;;;15.90;99.90;;;;;;5096639;28;20195;-44
2023/06/18 04:16:53;;;;;;;8.47;5.53;;;15.90;99.90;;;;;;5096776;28;20536;-44
2023/06/18 04:19:18;;;;;;;16.87;5.50;;;16.00;99.90;;;;;;5096340;28;20258;-43
2023/06/18 04:21:44;;;;;;;8.27;5.27;;;16.00;99.90;;;;;;5096270;28;20203;-44
2023/06/18 04:24:09;;;;;;;7.30;5.27;;;16.10;99.90;;;;;;5096302;28;20191;-45
2023/06/18 04:26:35;;;;;;;8.97;5.17;;;16.10;99.90;;;;;;5096653;28;20202;-43
2023/06/18 04:29:00;;;;;;;13.97;5.67;;;16.20;99.90;;;;;;5096347;28;20228;-43
2023/06/18 04:31:26;;;;;;;11.70;5.33;;;16.20;99.90;;;;;;5096079;28;20276;-42
2023/06/18 04:33:52;;;;;;;12.60;5.20;;;16.30;99.90;;;;;;5096162;28;20183;-44
2023/06/18 04:36:17;;;;;;;8.80;4.60;;;16.40;99.90;;;;;;5096827;28;20171;-44
2023/06/18 04:38:43;;;;;;;10.47;5.40;;;16.50;99.90;;;;;;5096183;28;20190;-44
2023/06/18 04:41:09;;;;;;;8.57;4.73;;;16.50;99.90;;;;;;5096445;28;20293;-42
2023/06/18 04:43:36;;;;;;;12.10;5.30;;;16.60;99.90;;;;;;5094849;28;20730;-40
2023/06/18 04:46:01;;;;;;;8.23;5.00;;;16.60;99.90;;;;;;5094592;28;20206;-43
2023/06/18 04:48:27;;;;;;;6.90;4.40;;;16.70;99.90;;;;;;5095822;28;20655;-43
2023/06/18 04:50:53;;;;;;;13.27;5.30;;;16.80;99.90;;;;;;5095667;28;20508;-41
2023/06/18 04:53:18;;;;;;;11.97;5.43;;;16.80;99.90;;;;;;5095886;28;20224;-42
2023/06/18 04:55:44;;;;;;;10.80;5.00;;;16.90;99.90;;;;;;5095882;28;20592;-42
2023/06/18 04:58:10;;;;;;;14.20;5.13;;;16.90;99.90;;;;;;5095564;28;20213;-43
2023/06/18 05:00:36;;;;;;;10.43;4.87;;;16.90;99.90;;;;;;5095512;28;20649;-42
2023/06/18 05:03:03;;;;;;;7.87;4.97;;;17.00;99.90;;;;;;5095478;28;20209;-41
2023/06/18 05:05:29;;;;;;;8.40;4.53;;;17.00;99.90;;;;;;5095327;28;20191;-42
2023/06/18 05:07:54;;;;;;;8.50;4.60;;;17.10;99.90;;;;;;5095537;28;20649;-40
2023/06/18 05:10:21;;;;;;;11.07;5.00;;;17.10;99.90;;;;;;5095273;28;20207;-41
2023/06/18 05:12:47;;;;;;;9.90;4.80;;;17.20;99.90;;;;;;5095634;28;20238;-44
2023/06/18 05:15:13;;;;;;;9.17;4.37;;;17.20;99.90;;;;;;5095112;28;20294;-45
2023/06/18 05:17:39;;;;;;;6.20;5.17;;;17.20;99.90;;;;;;5095191;28;20171;-43
2023/06/18 05:20:05;;;;;;;9.20;4.93;;;17.30;99.90;;;;;;5095078;28;20183;-45
2023/06/18 05:22:31;;;;;;;10.17;5.23;;;17.30;99.90;;;;;;5095101;28;20185;-41
2023/06/18 05:24:59;;;;;;;9.50;5.40;;;17.40;99.90;;;;;;5094970;28;20198;-42
2023/06/18 05:27:26;;;;;;;10.07;4.90;;;17.40;99.90;;;;;;5095266;28;20232;-39
2023/06/18 05:29:51;;;;;;;11.20;4.90;;;17.40;99.90;;;;;;5095178;28;20205;-43
2023/06/18 05:32:17;;;;;;;6.47;4.07;;;17.50;99.90;;;;;;5094913;28;20555;-42
2023/06/18 05:34:43;;;;;;;6.93;4.30;;;17.50;99.90;;;;;;5095075;28;20240;-40
2023/06/18 05:37:09;;;;;;;6.67;4.70;;;17.60;99.90;;;;;;5094689;28;20194;-43
2023/06/18 05:39:35;;;;;;;7.40;5.13;;;17.70;99.90;;;;;;5094631;28;20217;-43
2023/06/18 05:42:00;;;;;;;9.13;4.73;;;17.70;99.90;;;;;;5094752;28;20198;-41
2023/06/18 05:44:26;;;;;;;6.17;4.87;;;17.80;99.90;;;;;;5094697;28;20718;-42
2023/06/18 05:46:52;;;;;;;6.30;4.40;;;17.90;99.90;;;;;;5094714;28;20187;-43
2023/06/18 05:49:17;;;;;;;7.67;4.20;;;18.00;99.90;;;;;;5094674;28;20262;-43
2023/06/18 05:51:45;;;;;;;4.90;4.40;;;18.10;99.90;;;;;;5094551;28;20167;-42
2023/06/18 05:54:12;;;;;;;7.57;4.23;;;18.20;99.90;;;;;;5094160;28;20685;-44
2023/06/18 05:56:39;;;;;;;4.67;4.17;;;18.30;99.90;;;;;;5094527;28;20179;-41
2023/06/18 05:59:05;;;;;;;5.60;4.17;;;18.30;99.90;;;;;;5076784;28;20311;-42
2023/06/18 06:01:33;;;;;;;6.23;4.03;;;18.50;99.90;;;;;;5094598;28;20257;-41
2023/06/18 06:03:59;;;;;;;8.20;4.60;;;18.50;99.90;;;;;;5094492;28;20217;-41
2023/06/18 06:06:25;;;;;;;5.20;4.10;;;18.70;99.90;;;;;;5094240;28;20175;-41
2023/06/18 06:08:52;;;;;;;6.43;4.63;;;18.70;99.90;;;;;;5094313;28;20182;-43
2023/06/18 06:11:17;;;;;;;5.90;4.43;;;18.90;99.90;;;;;;5094015;28;20256;-45
2023/06/18 06:13:43;;;;;;;7.23;4.40;;;19.00;99.90;;;;;;5094211;28;20191;-43
2023/06/18 06:16:09;;;;;;;5.03;4.10;;;19.20;99.90;;;;;;5094087;28;20659;-43
2023/06/18 06:18:34;;;;;;;5.23;4.30;;;19.30;99.90;;;;;;5094042;28;20224;-45
2023/06/18 06:21:00;;;;;;;7.80;4.50;;;19.40;99.90;;;;;;5094348;28;20175;-43
2023/06/18 06:23:26;;;;;;;5.67;4.07;;;19.40;99.90;;;;;;5094160;28;20178;-41
2023/06/18 06:25:51;;;;;;;5.20;3.70;;;19.60;99.90;;;;;;5094253;28;20181;-41
2023/06/18 06:28:17;;;;;;;7.33;4.20;;;19.70;99.90;;;;;;5093920;28;20174;-41
2023/06/18 06:30:43;;;;;;;5.30;3.90;;;19.70;99.90;;;;;;5093748;28;20202;-43
2023/06/18 06:33:08;;;;;;;5.03;3.80;;;19.90;99.90;;;;;;5093864;28;20655;-43
2023/06/18 06:35:34;;;;;;;5.57;4.03;;;20.00;99.90;;;;;;5093955;28;20249;-43
2023/06/18 06:37:59;;;;;;;6.03;3.77;;;20.20;99.90;;;;;;5093582;28;20182;-43
2023/06/18 06:40:25;;;;;;;8.60;4.17;;;20.40;99.90;;;;;;5093691;28;20636;-43
2023/06/18 06:42:50;;;;;;;6.10;4.23;;;20.60;99.90;;;;;;5093593;28;20178;-44
2023/06/18 06:45:16;;;;;;;10.53;4.17;;;20.90;99.90;;;;;;5093528;28;20244;-43
2023/06/18 06:47:41;;;;;;;4.67;4.17;;;21.20;99.90;;;;;;5092278;28;20182;-42
2023/06/18 06:50:07;;;;;;;6.40;3.50;;;21.30;99.90;;;;;;5093586;28;20199;-43
2023/06/18 06:52:33;;;;;;;6.17;4.20;;;21.50;99.90;;;;;;5093534;28;20167;-43
2023/06/18 06:54:58;;;;;;;5.40;4.13;;;21.80;99.90;;;;;;5093403;28;20265;-44
2023/06/18 06:57:24;;;;;;;4.27;3.77;;;21.90;99.90;;;;;;5093503;28;20704;-43
2023/06/18 06:59:50;;;;;;;4.90;3.77;;;22.10;99.90;;;;;;5093757;28;20175;-43
2023/06/18 07:02:15;;;;;;;5.70;3.53;;;22.40;99.90;;;;;;5093448;28;20175;-43
2023/06/18 07:04:46;;;;;;;5.77;3.63;;;22.50;99.90;;;;;;5094291;28;20283;-42
2023/06/18 07:07:13;;;;;;;4.00;3.60;;;22.60;99.90;;;;;;5094095;28;20163;-45
2023/06/18 07:09:38;;;;;;;6.03;4.20;;;22.50;99.90;;;;;;5093972;28;20210;-45
2023/06/18 07:12:04;;;;;;;4.57;3.93;;;22.70;99.90;;;;;;5093757;28;20171;-42
2023/06/18 07:14:30;;;;;;;7.37;4.03;;;22.80;99.90;;;;;;5093533;28;20289;-45
2023/06/18 07:16:55;;;;;;;4.47;3.30;;;22.80;99.90;;;;;;5093672;28;20175;-45
2023/06/18 07:19:21;;;;;;;7.53;3.80;;;23.00;99.90;;;;;;5093571;28;20171;-43
2023/06/18 07:21:47;;;;;;;5.23;3.50;;;23.20;99.90;;;;;;5093319;28;20171;-45
2023/06/18 07:24:12;;;;;;;6.87;4.27;;;23.40;99.90;;;;;;5093554;28;20693;-44
2023/06/18 07:26:38;;;;;;;3.97;3.40;;;23.50;99.90;;;;;;5093305;28;20689;-44
2023/06/18 07:29:03;;;;;;;6.07;4.17;;;23.60;99.90;;;;;;5093515;28;20178;-44
2023/06/18 07:31:29;;;;;;;4.93;4.20;;;23.70;99.90;;;;;;5093401;28;20230;-46
2023/06/18 07:33:55;;;;;;;4.67;3.90;;;23.80;99.90;;;;;;5093539;28;20210;-44
2023/06/18 07:36:21;;;;;;;5.83;3.60;;;24.00;99.90;;;;;;5093355;28;20179;-44
2023/06/18 07:38:48;;;;;;;5.93;4.03;;;24.10;99.90;;;;;;5092971;28;20553;-43
2023/06/18 07:41:14;;;;;;;6.33;3.83;;;24.20;99.90;;;;;;5093365;28;20186;-42
2023/06/18 07:43:40;;;;;;;5.13;3.73;;;24.30;99.90;;;;;;5093033;28;20285;-44
2023/06/18 07:46:06;;;;;;;4.90;3.67;;;24.40;99.90;;;;;;5093331;28;20186;-42
2023/06/18 07:48:32;;;;;;;8.03;3.70;;;24.40;99.90;;;;;;5092975;28;20182;-44
2023/06/18 07:50:57;;;;;;;6.37;3.73;;;24.40;99.90;;;;;;5093158;28;20199;-43
2023/06/18 07:53:23;;;;;;;4.80;3.93;;;24.30;99.90;;;;;;5093091;28;20167;-45
2023/06/18 07:55:49;;;;;;;4.93;4.03;;;24.20;99.90;;;;;;5093204;28;20175;-44
2023/06/18 07:58:14;;;;;;;8.20;4.00;;;24.10;99.90;;;;;;5092955;28;20639;-43
2023/06/18 08:00:40;;;;;;;7.97;4.03;;;24.10;99.90;;;;;;5092937;28;20290;-42
2023/06/18 08:03:05;;;;;;;6.43;4.17;;;24.10;99.90;;;;;;5093073;28;20182;-41
2023/06/18 08:05:32;;;;;;;5.37;3.97;;;24.10;99.90;;;;;;5092921;28;20202;-43
2023/06/18 08:07:58;;;;;;;5.17;3.70;;;24.20;99.90;;;;;;5093087;28;20186;-44
2023/06/18 08:10:24;;;;;;;5.30;3.83;;;24.20;99.90;;;;;;5092880;28;20194;-42
2023/06/18 08:12:49;;;;;;;6.67;3.73;;;24.40;99.90;;;;;;5092948;28;20198;-43
2023/06/18 08:15:15;;;;;;;8.20;3.93;;;24.60;99.90;;;;;;5091582;28;20195;-43
2023/06/18 08:17:41;;;;;;;8.90;4.27;;;24.90;99.90;;;;;;5093647;28;20175;-42
2023/06/18 08:20:07;;;;;;;7.17;3.87;;;25.20;99.90;;;;;;5096445;28;20182;-45
2023/06/18 08:22:38;;;;;;;5.80;3.73;;;25.30;99.90;;;;;;5096437;28;20179;-43
2023/06/18 08:25:04;;;;;;;5.33;3.80;;;25.60;99.90;;;;;;5096304;28;20311;-42
2023/06/18 08:27:32;;;;;;;5.20;3.40;;;25.70;99.90;;;;;;5097375;28;20171;-43
2023/06/18 08:30:03;;;;;;;6.67;4.10;;;26.00;99.90;;;;;;5098585;28;20202;-43
2023/06/18 08:32:34;;;;;;;5.63;3.67;;;26.00;99.90;;;;;;5097512;28;20603;-44
2023/06/18 08:35:02;;;;;;;7.40;4.20;;;26.20;99.90;;;;;;5096536;28;20195;-43
2023/06/18 08:37:36;;;;;;;5.10;4.17;;;26.00;99.90;;;;;;5095939;28;20202;-44
2023/06/18 08:40:12;;;;;;;10.40;4.03;;;25.90;99.90;;;;;;5097609;28;20163;-43
2023/06/18 08:42:37;;;;;;;6.27;4.07;;;25.90;99.90;;;;;;5095386;28;20611;-44
2023/06/18 08:45:08;;;;;;;4.93;3.80;;;25.90;99.90;;;;;;5096632;28;20708;-44
2023/06/18 08:47:35;;;;;;;9.43;4.00;;;26.10;99.90;;;;;;5096379;28;20171;-44
2023/06/18 08:50:04;;;;;;;4.80;4.10;;;26.40;99.90;;;;;;5096439;28;20194;-45
2023/06/18 08:52:38;;;;;;;7.00;4.30;;;26.60;99.90;;;;;;5095948;28;20258;-43
2023/06/18 08:55:09;;;;;;;7.87;4.27;;;26.80;99.90;;;;;;5096877;28;20207;-44
2023/06/18 08:57:53;;;;;;;5.87;3.93;;;26.90;99.90;;;;;;5096505;28;20254;-44
2023/06/18 09:00:31;;;;;;;6.37;3.83;;;26.90;99.90;;;;;;5095954;28;20159;-44
2023/06/18 09:03:03;;;;;;;7.93;4.33;;;27.00;99.90;;;;;;5095687;28;20159;-44
2023/06/18 09:05:58;;;;;;;6.13;4.33;;;27.20;99.90;;;;;;5095865;28;20194;-44
2023/06/18 09:08:24;;;;;;;6.63;4.43;;;27.00;99.90;;;;;;5091588;28;20191;-42
2023/06/18 09:11:02;;;;;;;12.90;4.10;;;27.00;99.90;;;;;;5094102;28;20619;-45
2023/06/18 09:13:48;;;;;;;7.23;3.73;;;27.10;99.90;;;;;;5095391;28;20249;-45
2023/06/18 09:16:26;;;;;;;5.10;3.90;;;27.10;98.80;;;;;;5094841;28;20568;-45
2023/06/18 09:18:58;;;;;;;5.63;3.73;;;27.30;99.50;;;;;;5095351;28;20182;-45
2023/06/18 09:22:21;;;;;;;5.37;3.77;;;27.40;99.30;;;;;;5095589;28;20159;-44
2023/06/18 09:24:57;;;;;;;7.47;4.17;;;27.60;98.70;;;;;;5053531;28;20211;-43
2023/06/18 09:27:36;;;;;;;5.63;3.97;;;27.50;98.10;;;;;;5095093;28;20179;-44
2023/06/18 09:30:08;;;;;;;5.20;4.20;;;27.30;98.20;;;;;;5094394;28;20199;-44
2023/06/18 09:32:59;;;;;;;5.07;4.33;;;27.30;97.80;;;;;;5095461;28;20596;-44
2023/06/18 09:35:30;;;;;;;4.23;3.80;;;27.40;97.30;;;;;;5094996;28;20738;-44
2023/06/18 09:38:12;;;;;;;6.73;4.23;;;27.60;97.80;;;;;;5094203;28;20297;-45
2023/06/18 09:40:41;;;;;;;5.93;4.27;;;27.60;96.90;;;;;;5095144;28;20159;-45
2023/06/18 09:43:16;;;;;;;4.47;4.07;;;27.60;97.30;;;;;;5095673;28;20627;-45
2023/06/18 09:45:47;;;;;;;5.28;3.88;;;27.80;97.80;;;;;;5095018;28;20214;-46
2023/06/18 09:48:16;;;;;;;5.85;4.18;;;27.80;95.70;;;;;;5095317;28;20170;-43
2023/06/18 09:50:47;;;;;;;4.70;4.13;;;27.80;96.30;;;;;;5094647;28;20242;-44
2023/06/18 09:53:24;;;;;;;4.72;4.13;;;27.90;95.80;;;;;;5094924;28;20242;-45
2023/06/18 09:56:07;;;;;;;6.22;3.67;;;27.90;97.10;;;;;;5095992;28;20166;-43
2023/06/18 09:58:54;;;;;;;5.35;4.10;;;28.00;96.50;;;;;;5095549;28;20286;-43
2023/06/18 10:01:30;;;;;;;5.43;4.05;;;27.90;96.50;;;;;;5094784;28;20179;-44
2023/06/18 10:04:01;;;;;;;4.07;3.67;;;27.90;97.10;;;;;;5094662;28;20205;-43
2023/06/18 10:06:28;;;;;;;5.32;3.80;;;28.10;95.60;;;;;;5094254;28;20729;-42
2023/06/18 10:09:00;;;;;;;4.28;3.88;;;28.20;94.60;;;;;;5099009;28;20167;-44
2023/06/18 10:11:36;;;;;;;6.22;4.25;;;28.20;94.60;;;;;;5094290;28;20191;-44
2023/06/18 10:14:12;;;;;;;5.63;3.55;;;28.20;95.10;;;;;;5094211;28;20198;-44
2023/06/18 10:16:44;;;;;;;5.53;4.10;;;28.30;94.70;;;;;;5094819;28;20514;-43
2023/06/18 10:19:21;;;;;;;7.18;3.92;;;28.70;95.70;;;;;;5094323;28;20636;-44
2023/06/18 10:21:54;;;;;;;4.60;4.20;;;28.90;95.60;;;;;;5098986;28;20675;-42
2023/06/18 10:24:31;;;;;;;7.05;3.83;;;29.30;92.80;;;;;;5094697;28;20218;-43
2023/06/18 10:26:57;;;;;;;6.32;3.80;;;29.10;93.00;;;;;;5094258;28;20183;-43
2023/06/18 10:29:29;;;;;;;4.45;3.70;;;29.10;94.10;;;;;;5094210;28;20183;-45
2023/06/18 10:32:05;;;;;;;5.63;3.80;;;29.00;93.10;;;;;;5095349;28;20156;-45
2023/06/18 10:34:37;;;;;;;3.92;3.63;;;29.00;93.10;;;;;;5093348;28;20202;-43
2023/06/18 10:37:09;;;;;;;4.93;3.90;;;29.20;94.10;;;;;;5096272;28;20643;-43
2023/06/18 10:39:47;;;;;;;4.78;4.00;;;29.50;92.60;;;;;;5093622;28;20268;-44
2023/06/18 10:42:22;;;;;;;3.97;3.63;;;29.40;91.30;;;;;;5093992;28;20173;-43
2023/06/18 10:44:51;;;;;;;5.40;3.60;;;29.40;93.40;;;;;;5093854;28;20198;-44
2023/06/18 10:47:32;;;;;;;7.90;4.00;;;29.40;92.70;;;;;;5093932;28;20184;-43
2023/06/18 10:50:07;;;;;;;9.30;4.13;;;29.50;92.00;;;;;;5093847;28;20659;-42
2023/06/18 10:52:43;;;;;;;7.03;3.85;;;29.50;92.60;;;;;;5093738;28;20614;-43
2023/06/18 10:55:21;;;;;;;4.65;3.65;;;29.50;92.80;;;;;;5093734;28;20273;-44
2023/06/18 10:58:04;;;;;;;6.90;4.20;;;29.60;92.60;;;;;;5094056;28;20155;-44
2023/06/18 11:00:36;;;;;;;5.05;3.72;;;29.80;92.90;;;;;;5092732;28;20549;-43
2023/06/18 11:03:10;;;;;;;4.97;4.13;;;29.80;94.00;;;;;;5093745;28;20179;-43
2023/06/18 11:05:43;;;;;;;7.75;4.40;;;30.00;94.30;;;;;;5093622;28;20659;-43
2023/06/18 11:08:13;;;;;;;8.65;4.20;;;30.30;92.90;;;;;;5093452;28;20171;-44
2023/06/18 11:10:48;;;;;;;9.63;4.20;;;30.30;92.90;;;;;;5093362;28;20221;-44
2023/06/18 11:13:17;;;;;;;5.25;4.10;;;30.20;92.20;;;;;;5093389;28;20198;-44
2023/06/18 11:16:02;;;;;;;4.78;3.80;;;30.10;92.90;;;;;;5093437;28;20581;-43
2023/06/18 11:18:39;;;;;;;5.00;4.05;;;30.10;92.30;;;;;;5093616;28;20194;-44
2023/06/18 11:21:19;;;;;;;4.38;3.80;;;29.90;91.60;;;;;;5093329;28;20163;-44
2023/06/18 11:23:51;;;;;;;5.68;3.85;;;29.60;91.80;;;;;;5093246;28;20209;-43
2023/06/18 11:26:31;;;;;;;6.05;4.10;;;29.30;92.00;;;;;;5093739;28;20166;-43
2023/06/18 11:29:01;;;;;;;7.20;4.30;;;29.20;93.10;;;;;;5094269;28;20179;-43
2023/06/18 11:31:36;;;;;;;8.85;4.40;;;29.10;92.40;;;;;;5093453;28;20191;-43
2023/06/18 11:34:09;;;;;;;6.30;4.18;;;29.00;92.70;;;;;;5094038;28;20199;-44
2023/06/18 11:36:41;;;;;;;5.40;3.83;;;29.00;92.40;;;;;;5092911;28;20645;-45
2023/06/18 11:39:06;;;;;;;6.18;4.30;;;29.00;93.80;;;;;;5095519;28;20194;-49
2023/06/18 11:41:33;;;;;;;5.38;4.07;;;29.10;92.80;;;;;;5104476;22;20283;-50
2023/06/18 11:43:59;;;;;;;5.72;4.35;;;29.20;94.20;;;;;;5114288;28;20224;-49
2023/06/18 11:46:29;;;;;;;6.72;4.80;;;29.30;92.20;;;;;;5113576;28;20694;-44
2023/06/18 11:48:55;;;;;;;5.07;3.88;;;29.30;92.20;;;;;;5113498;28;20533;-44
2023/06/18 11:51:24;;;;;;;4.90;3.83;;;29.30;92.40;;;;;;5113949;28;20198;-44
2023/06/18 11:53:50;;;;;;;5.78;4.13;;;29.20;91.40;;;;;;5117353;28;20210;-43
2023/06/18 11:56:16;;;;;;;5.10;4.15;;;29.10;92.40;;;;;;5118097;28;20644;-42
2023/06/18 11:58:42;;;;;;;5.28;3.90;;;29.00;92.40;;;;;;5118001;28;20212;-44
2023/06/18 12:01:07;;;;;;;4.57;4.18;;;28.90;93.30;;;;;;5117832;28;20182;-45
2023/06/18 12:03:34;;;;;;;5.90;4.20;;;28.90;93.60;;;;;;5098856;28;20542;-44
2023/06/18 12:06:01;;;;;;;6.60;4.07;;;29.00;93.50;;;;;;5117370;28;20193;-44
2023/06/18 12:08:26;;;;;;;4.57;3.85;;;29.00;93.70;;;;;;5117336;28;20200;-45
2023/06/18 12:10:53;;;;;;;4.88;4.38;;;29.00;93.90;;;;;;5116906;28;20237;-43
2023/06/18 12:13:33;;;;;;;5.65;4.30;;;29.00;92.30;;;;;;5117122;28;20182;-44
2023/06/18 12:16:07;;;;;;;6.88;4.30;;;28.90;92.90;;;;;;5117384;28;20245;-45
2023/06/18 12:18:40;;;;;;;6.18;3.95;;;29.10;93.60;;;;;;5098524;28;20228;-44
2023/06/18 12:21:06;;;;;;;4.72;4.25;;;29.20;91.90;;;;;;5117014;28;20253;-43
2023/06/18 12:23:31;;;;;;;8.73;3.88;;;29.40;93.20;;;;;;5116555;28;20613;-44
2023/06/18 12:25:58;;;;;;;4.18;3.78;;;29.40;91.70;;;;;;5116618;28;20269;-44
2023/06/18 12:28:24;;;;;;;5.05;4.07;;;29.30;91.30;;;;;;5116906;28;20184;-44
2023/06/18 12:30:53;;;;;;;4.78;3.85;;;29.20;91.30;;;;;;5098243;28;20202;-43
2023/06/18 12:33:19;;;;;;;4.38;3.97;;;29.00;91.70;;;;;;5116451;28;20170;-42
2023/06/18 12:35:54;;;;;;;4.50;3.97;;;28.90;92.30;;;;;;5116770;28;20199;-43
2023/06/18 12:38:21;;;;;;;5.22;3.92;;;29.00;91.80;;;;;;5116677;28;20586;-43
2023/06/18 12:40:49;;;;;;;4.68;4.22;;;29.00;91.10;;;;;;5116305;28;20170;-44
2023/06/18 12:43:17;;;;;;;4.25;3.67;;;29.00;92.20;;;;;;5116215;28;20201;-44
2023/06/18 12:45:45;;;;;;;6.60;4.07;;;29.10;92.20;;;;;;5116232;28;20689;-43
2023/06/18 12:48:16;;;;;;;4.28;3.88;;;29.20;91.20;;;;;;5116236;28;20257;-44
2023/06/18 12:50:50;;;;;;;6.90;4.03;;;29.20;91.60;;;;;;5116030;28;20189;-46
2023/06/18 12:53:24;;;;;;;4.85;3.92;;;29.30;91.90;;;;;;5116314;28;20158;-43